Time;durP1;ratioP1;P1;durP2;ratioP2;P2;SDS_P1;SDS_P2;PMS_P1;PMS_P2;Temp;Humidity;BMP_temperature;BMP_pressure;BME280_temperature;BME280_humidity;BME280_pressure;Samples;Min_cycle;Max_cycle;Signal;HPM_P1;HPM_P2
2022/11/09 00:02:24;;;;;;;;;;;;;;;;;;5098847;28;808;-79
2022/11/09 00:04:49;;;;;;;;;;;;;;;;;;5097325;28;1915;-79
2022/11/09 00:07:15;;;;;;;;;;;;;;;;;;5098667;28;836;-79
2022/11/09 00:09:40;;;;;;;;;;;;;;;;;;5097474;28;1189;-80
2022/11/09 00:12:06;;;;;;;;;;;;;;;;;;5099122;28;853;-80
2022/11/09 00:14:31;;;;;;;;;;;;;;;;;;5097664;28;1331;-79
2022/11/09 00:16:56;;;;;;;;;;;;;;;;;;5081055;28;1170;-79
2022/11/09 00:19:22;;;;;;;;;;;;;;;;;;5080932;28;1131;-80
2022/11/09 00:21:49;;;;;;;;;;;;;;;;;;5098720;28;1069;-79
2022/11/09 00:24:15;;;;;;;;;;;;;;;;;;5098956;28;1910;-79
2022/11/09 00:26:40;;;;;;;;;;;;;;;;;;5097898;28;1284;-79
2022/11/09 00:29:05;;;;;;;;;;;;;;;;;;5099030;28;833;-79
2022/11/09 00:31:30;;;;;;;;;;;;;;;;;;5080251;28;1170;-80
2022/11/09 00:33:56;;;;;;;;;;;;;;;;;;5097954;28;1077;-79
2022/11/09 00:36:22;;;;;;;;;;;;;;;;;;5098097;28;1237;-78
2022/11/09 00:38:55;;;;;;;;;;;;;;;;;;5096510;28;959;-79
2022/11/09 00:41:21;;;;;;;;;;;;;;;;;;5095337;28;1160;-78
2022/11/09 00:43:47;;;;;;;;;;;;;;;;;;5096100;28;892;-80
2022/11/09 00:46:13;;;;;;;;;;;;;;;;;;5097382;28;1957;-79
2022/11/09 00:48:39;;;;;;;;;;;;;;;;;;5097372;28;1190;-79
2022/11/09 00:51:04;;;;;;;;;;;;;;;;;;5097711;28;863;-79
2022/11/09 00:53:30;;;;;;;;;;;;;;;;;;5097994;28;927;-79
2022/11/09 00:55:56;;;;;;;;;;;;;;;;;;5096768;28;1118;-79
2022/11/09 00:58:21;;;;;;;;;;;;;;;;;;5098435;28;1061;-79
2022/11/09 01:00:47;;;;;;;;;;;;;;;;;;5097672;28;884;-79
2022/11/09 01:03:12;;;;;;;;;;;;;;;;;;5099173;28;864;-79
2022/11/09 01:05:39;;;;;;;;;;;;;;;;;;5097880;28;1969;-80
2022/11/09 01:08:04;;;;;;;;;;;;;;;;;;5098565;28;1023;-79
2022/11/09 01:10:30;;;;;;;;;;;;;;;;;;5098996;28;880;-79
2022/11/09 01:12:55;;;;;;;;;;;;;;;;;;5098626;28;869;-79
2022/11/09 01:15:20;;;;;;;;;;;;;;;;;;5097685;28;1289;-79
2022/11/09 01:17:46;;;;;;;;;;;;;;;;;;5088492;28;1323;-79
2022/11/09 01:20:11;;;;;;;;;;;;;;;;;;5071538;28;1294;-80
2022/11/09 01:22:37;;;;;;;;;;;;;;;;;;5090920;28;1268;-80
2022/11/09 01:25:02;;;;;;;;;;;;;;;;;;5089078;28;1902;-79
2022/11/09 01:27:27;;;;;;;;;;;;;;;;;;5078802;28;1214;-79
2022/11/09 01:29:53;;;;;;;;;;;;;;;;;;5076872;28;1163;-79
2022/11/09 01:32:18;;;;;;;;;;;;;;;;;;5083007;28;1263;-79
2022/11/09 01:34:43;;;;;;;;;;;;;;;;;;5085257;28;1187;-80
2022/11/09 01:37:09;;;;;;;;;;;;;;;;;;5066552;28;1294;-79
2022/11/09 01:39:34;;;;;;;;;;;;;;;;;;5066337;28;1234;-80
2022/11/09 01:41:59;;;;;;;;;;;;;;;;;;5084031;28;1223;-80
2022/11/09 01:44:26;;;;;;;;;;;;;;;;;;5094465;28;1955;-80
2022/11/09 01:46:56;;;;;;;;;;;;;;;;;;5094020;28;871;-78
2022/11/09 01:49:21;;;;;;;;;;;;;;;;;;5094424;28;887;-79
2022/11/09 01:51:48;;;;;;;;;;;;;;;;;;5092212;28;1119;-80
2022/11/09 01:54:18;;;;;;;;;;;;;;;;;;5094055;28;907;-79
2022/11/09 01:56:44;;;;;;;;;;;;;;;;;;5094237;28;1065;-80
2022/11/09 01:59:16;;;;;;;;;;;;;;;;;;5092940;28;1157;-79
2022/11/09 02:01:42;;;;;;;;;;;;;;;;;;5093444;28;915;-80
2022/11/09 02:04:10;;;;;;;;;;;;;;;;;;5093917;28;1893;-79
2022/11/09 02:06:35;;;;;;;;;;;;;;;;;;5092362;28;1356;-79
2022/11/09 02:09:06;;;;;;;;;;;;;;;;;;5092454;28;1218;-79
2022/11/09 02:11:33;;;;;;;;;;;;;;;;;;5093587;28;1050;-79
2022/11/09 02:13:59;;;;;;;;;;;;;;;;;;5092269;28;1118;-79
2022/11/09 02:16:25;;;;;;;;;;;;;;;;;;5092356;28;1296;-79
2022/11/09 02:18:52;;;;;;;;;;;;;;;;;;5093149;28;813;-79
2022/11/09 02:21:18;;;;;;;;;;;;;;;;;;5093313;28;869;-80
2022/11/09 02:23:43;;;;;;;;;;;;;;;;;;5092027;28;1178;-80
2022/11/09 02:26:11;;;;;;;;;;;;;;;;;;5091501;28;1918;-80
2022/11/09 02:28:37;;;;;;;;;;;;;;;;;;5090995;28;1238;-80
2022/11/09 02:31:03;;;;;;;;;;;;;;;;;;5091243;28;1310;-80
2022/11/09 02:33:29;;;;;;;;;;;;;;;;;;5093120;28;818;-80
2022/11/09 02:35:54;;;;;;;;;;;;;;;;;;5091493;28;1026;-80
2022/11/09 02:38:19;;;;;;;;;;;;;;;;;;5091665;28;1300;-80
2022/11/09 02:40:47;;;;;;;;;;;;;;;;;;5074977;28;1101;-80
2022/11/09 02:43:13;;;;;;;;;;;;;;;;;;5093592;28;846;-79
2022/11/09 02:45:39;;;;;;;;;;;;;;;;;;5093700;28;1972;-80
2022/11/09 02:48:04;;;;;;;;;;;;;;;;;;5092350;28;1170;-80
2022/11/09 02:50:29;;;;;;;;;;;;;;;;;;5091316;28;1174;-79
2022/11/09 02:52:55;;;;;;;;;;;;;;;;;;5092437;28;971;-80
2022/11/09 02:55:20;;;;;;;;;;;;;;;;;;5092112;28;1305;-79
2022/11/09 02:57:45;;;;;;;;;;;;;;;;;;5091937;28;915;-79
2022/11/09 03:00:11;;;;;;;;;;;;;;;;;;5091700;28;1173;-79
2022/11/09 03:02:37;;;;;;;;;;;;;;;;;;5091271;28;1174;-79
2022/11/09 03:05:02;;;;;;;;;;;;;;;;;;5074503;28;1972;-79
2022/11/09 03:07:27;;;;;;;;;;;;;;;;;;5074870;28;1479;-79
2022/11/09 03:09:53;;;;;;;;;;;;;;;;;;5091431;28;1292;-80
2022/11/09 03:12:27;;;;;;;;;;;;;;;;;;5093286;28;928;-79
2022/11/09 03:14:53;;;;;;;;;;;;;;;;;;5091670;28;1173;-79
2022/11/09 03:17:18;;;;;;;;;;;;;;;;;;5092321;28;833;-79
2022/11/09 03:19:44;;;;;;;;;;;;;;;;;;5074755;28;1214;-79
2022/11/09 03:22:09;;;;;;;;;;;;;;;;;;5091772;28;1133;-79
2022/11/09 03:24:34;;;;;;;;;;;;;;;;;;5091941;28;1910;-79
2022/11/09 03:27:00;;;;;;;;;;;;;;;;;;5093078;28;836;-79
2022/11/09 03:29:25;;;;;;;;;;;;;;;;;;5093461;28;1047;-79
2022/11/09 03:31:50;;;;;;;;;;;;;;;;;;5074319;28;1279;-78
2022/11/09 03:34:15;;;;;;;;;;;;;;;;;;5092661;28;934;-78
2022/11/09 03:36:41;;;;;;;;;;;;;;;;;;5090960;28;1178;-78
2022/11/09 03:39:06;;;;;;;;;;;;;;;;;;5074516;28;1281;-79
2022/11/09 03:41:31;;;;;;;;;;;;;;;;;;5091185;28;1057;-79
2022/11/09 03:43:56;;;;;;;;;;;;;;;;;;5091048;28;1085;-79
2022/11/09 03:46:22;;;;;;;;;;;;;;;;;;5074146;28;1906;-79
2022/11/09 03:48:47;;;;;;;;;;;;;;;;;;5090836;28;1047;-79
2022/11/09 03:51:12;;;;;;;;;;;;;;;;;;5072891;28;1254;-80
2022/11/09 03:53:37;;;;;;;;;;;;;;;;;;5054464;28;1177;-80
2022/11/09 03:56:03;;;;;;;;;;;;;;;;;;5071216;28;809;-79
2022/11/09 03:58:28;;;;;;;;;;;;;;;;;;5070464;28;963;-79
2022/11/09 04:00:53;;;;;;;;;;;;;;;;;;5070560;28;1059;-79
2022/11/09 04:03:19;;;;;;;;;;;;;;;;;;5071675;28;857;-77
2022/11/09 04:05:44;;;;;;;;;;;;;;;;;;5071758;28;1969;-78
2022/11/09 04:08:09;;;;;;;;;;;;;;;;;;5072288;28;853;-78
2022/11/09 04:10:35;;;;;;;;;;;;;;;;;;5072060;28;825;-78
2022/11/09 04:13:00;;;;;;;;;;;;;;;;;;5071301;28;1241;-79
2022/11/09 04:15:25;;;;;;;;;;;;;;;;;;5074859;28;908;-79
2022/11/09 04:17:55;;;;;;;;;;;;;;;;;;5074967;28;1212;-79
2022/11/09 04:20:20;;;;;;;;;;;;;;;;;;5076207;28;836;-79
2022/11/09 04:22:52;;;;;;;;;;;;;;;;;;5074137;28;1230;-78
2022/11/09 04:25:17;;;;;;;;;;;;;;;;;;5074053;28;1967;-79
2022/11/09 04:27:42;;;;;;;;;;;;;;;;;;5074380;28;1130;-79
2022/11/09 04:30:08;;;;;;;;;;;;;;;;;;5075543;28;1011;-78
2022/11/09 04:32:33;;;;;;;;;;;;;;;;;;5057270;28;1325;-79
2022/11/09 04:34:59;;;;;;;;;;;;;;;;;;5074033;28;948;-79
2022/11/09 04:37:24;;;;;;;;;;;;;;;;;;5057552;28;1171;-78
2022/11/09 04:39:50;;;;;;;;;;;;;;;;;;5074070;28;881;-78
2022/11/09 04:42:15;;;;;;;;;;;;;;;;;;5074198;28;1051;-78
2022/11/09 04:44:40;;;;;;;;;;;;;;;;;;5073241;28;1874;-78
2022/11/09 04:47:06;;;;;;;;;;;;;;;;;;5074124;28;876;-78
2022/11/09 04:49:31;;;;;;;;;;;;;;;;;;5074082;28;1141;-78
2022/11/09 04:51:56;;;;;;;;;;;;;;;;;;5073672;28;927;-79
2022/11/09 04:54:21;;;;;;;;;;;;;;;;;;5073295;28;1203;-78
2022/11/09 04:56:47;;;;;;;;;;;;;;;;;;5073512;28;1131;-79
2022/11/09 04:59:12;;;;;;;;;;;;;;;;;;5057068;28;1310;-79
2022/11/09 05:01:37;;;;;;;;;;;;;;;;;;5073307;28;1281;-79
2022/11/09 05:04:03;;;;;;;;;;;;;;;;;;5057514;28;1250;-78
2022/11/09 05:06:31;;;;;;;;;;;;;;;;;;5057128;28;1964;-79
2022/11/09 05:08:57;;;;;;;;;;;;;;;;;;5074069;28;1532;-78
2022/11/09 05:11:23;;;;;;;;;;;;;;;;;;5074409;28;1112;-79
2022/11/09 05:13:50;;;;;;;;;;;;;;;;;;5074353;28;1118;-79
2022/11/09 05:16:16;;;;;;;;;;;;;;;;;;5057611;28;1254;-78
2022/11/09 05:18:41;;;;;;;;;;;;;;;;;;5057122;28;1233;-79
2022/11/09 05:21:07;;;;;;;;;;;;;;;;;;5074303;28;1261;-79
2022/11/09 05:26:17;;;;;;;;;;;;;;;;;;5073997;28;1906;-78
2022/11/09 05:28:42;;;;;;;;;;;;;;;;;;5057483;28;1333;-78
2022/11/09 05:31:07;;;;;;;;;;;;;;;;;;5076921;28;1033;-79
2022/11/09 05:33:33;;;;;;;;;;;;;;;;;;5073957;28;1301;-79
2022/11/09 05:35:58;;;;;;;;;;;;;;;;;;5056775;28;1312;-80
2022/11/09 05:38:24;;;;;;;;;;;;;;;;;;5073485;28;1245;-79
2022/11/09 05:40:50;;;;;;;;;;;;;;;;;;5073020;28;1221;-78
2022/11/09 05:43:15;;;;;;;;;;;;;;;;;;5073940;28;1352;-77
2022/11/09 05:45:41;;;;;;;;;;;;;;;;;;5056704;28;1957;-79
2022/11/09 05:48:06;;;;;;;;;;;;;;;;;;5075221;28;905;-79
2022/11/09 05:50:31;;;;;;;;;;;;;;;;;;5073231;28;1226;-79
2022/11/09 05:52:57;;;;;;;;;;;;;;;;;;5075039;28;865;-79
2022/11/09 05:55:23;;;;;;;;;;;;;;;;;;5074608;28;826;-79
2022/11/09 05:57:48;;;;;;;;;;;;;;;;;;5073037;28;1281;-79
2022/11/09 06:00:14;;;;;;;;;;;;;;;;;;5056411;28;1293;-79
2022/11/09 06:02:39;;;;;;;;;;;;;;;;;;5055755;28;1147;-79
2022/11/09 06:05:04;;;;;;;;;;;;;;;;;;5072461;28;1919;-78
2022/11/09 06:07:29;;;;;;;;;;;;;;;;;;5073889;28;872;-78
2022/11/09 06:09:55;;;;;;;;;;;;;;;;;;5072490;28;1299;-79
2022/11/09 06:12:20;;;;;;;;;;;;;;;;;;5055850;28;1167;-78
2022/11/09 06:14:46;;;;;;;;;;;;;;;;;;5073615;28;809;-78
2022/11/09 06:17:11;;;;;;;;;;;;;;;;;;5073096;28;1368;-79
2022/11/09 06:19:36;;;;;;;;;;;;;;;;;;5056608;28;1437;-80
2022/11/09 06:22:01;;;;;;;;;;;;;;;;;;5056598;28;1125;-79
2022/11/09 06:24:27;;;;;;;;;;;;;;;;;;5073808;28;1902;-78
2022/11/09 06:26:52;;;;;;;;;;;;;;;;;;5073265;28;900;-78
2022/11/09 06:29:18;;;;;;;;;;;;;;;;;;5074901;28;944;-79
2022/11/09 06:31:45;;;;;;;;;;;;;;;;;;5072338;28;1345;-79
2022/11/09 06:34:10;;;;;;;;;;;;;;;;;;5072545;28;1241;-79
2022/11/09 06:36:35;;;;;;;;;;;;;;;;;;5072270;28;966;-79
2022/11/09 06:39:00;;;;;;;;;;;;;;;;;;5072409;28;1054;-79
2022/11/09 06:41:26;;;;;;;;;;;;;;;;;;5072329;28;1166;-78
2022/11/09 06:43:51;;;;;;;;;;;;;;;;;;5055784;28;1289;-79
2022/11/09 06:46:16;;;;;;;;;;;;;;;;;;5071604;28;1968;-79
2022/11/09 06:48:44;;;;;;;;;;;;;;;;;;5071140;28;1347;-79
2022/11/09 06:51:11;;;;;;;;;;;;;;;;;;5073101;28;908;-79
2022/11/09 06:53:37;;;;;;;;;;;;;;;;;;5071252;28;1052;-79
2022/11/09 06:56:05;;;;;;;;;;;;;;;;;;5055521;28;1198;-79
2022/11/09 06:58:31;;;;;;;;;;;;;;;;;;5071283;28;884;-79
2022/11/09 07:00:56;;;;;;;;;;;;;;;;;;5071303;28;1106;-79
2022/11/09 07:03:22;;;;;;;;;;;;;;;;;;5071479;28;1404;-79
2022/11/09 07:05:48;;;;;;;;;;;;;;;;;;5054710;28;1906;-78
2022/11/09 07:08:14;;;;;;;;;;;;;;;;;;5070892;28;1150;-78
2022/11/09 07:10:39;;;;;;;;;;;;;;;;;;5054306;28;1214;-79
2022/11/09 07:13:05;;;;;;;;;;;;;;;;;;5071395;28;1174;-78
2022/11/09 07:15:31;;;;;;;;;;;;;;;;;;5054531;28;1180;-79
2022/11/09 07:17:57;;;;;;;;;;;;;;;;;;5071643;28;1058;-79
2022/11/09 07:20:22;;;;;;;;;;;;;;;;;;5072843;28;895;-78
2022/11/09 07:22:51;;;;;;;;;;;;;;;;;;5072318;28;875;-79
2022/11/09 07:25:17;;;;;;;;;;;;;;;;;;5071778;28;1901;-80
2022/11/09 07:27:42;;;;;;;;;;;;;;;;;;5071052;28;1277;-80
2022/11/09 07:30:08;;;;;;;;;;;;;;;;;;5071690;28;1163;-80
2022/11/09 07:32:37;;;;;;;;;;;;;;;;;;5054022;28;1167;-80
2022/11/09 07:35:03;;;;;;;;;;;;;;;;;;5054123;28;1151;-80
2022/11/09 07:37:28;;;;;;;;;;;;;;;;;;5071563;28;1127;-80
2022/11/09 07:39:53;;;;;;;;;;;;;;;;;;5072071;28;750;-80
2022/11/09 07:42:19;;;;;;;;;;;;;;;;;;5054765;28;1150;-80
2022/11/09 07:44:45;;;;;;;;;;;;;;;;;;5054659;28;1958;-80
2022/11/09 07:47:10;;;;;;;;;;;;;;;;;;5071626;28;1254;-80
2022/11/09 07:49:36;;;;;;;;;;;;;;;;;;5058521;28;1155;-80
2022/11/09 07:52:01;;;;;;;;;;;;;;;;;;5076138;28;1400;-80
2022/11/09 07:54:26;;;;;;;;;;;;;;;;;;5075601;28;959;-79
2022/11/09 07:56:52;;;;;;;;;;;;;;;;;;5058248;28;1126;-79
2022/11/09 07:59:17;;;;;;;;;;;;;;;;;;5058306;28;1146;-79
2022/11/09 08:01:42;;;;;;;;;;;;;;;;;;5057286;28;1211;-79
2022/11/09 08:04:08;;;;;;;;;;;;;;;;;;5057914;28;1226;-79
2022/11/09 08:06:33;;;;;;;;;;;;;;;;;;5057052;28;1914;-79
2022/11/09 08:08:58;;;;;;;;;;;;;;;;;;5057668;28;1345;-80
2022/11/09 08:11:24;;;;;;;;;;;;;;;;;;5075296;28;1293;-79
2022/11/09 08:13:49;;;;;;;;;;;;;;;;;;5075214;28;821;-79
2022/11/09 08:16:14;;;;;;;;;;;;;;;;;;5074790;28;1155;-79
2022/11/09 08:18:40;;;;;;;;;;;;;;;;;;5074643;28;1130;-79
2022/11/09 08:21:05;;;;;;;;;;;;;;;;;;5074609;28;1142;-80
2022/11/09 08:23:30;;;;;;;;;;;;;;;;;;5074965;28;1186;-80
2022/11/09 08:25:56;;;;;;;;;;;;;;;;;;5075942;28;1898;-80
2022/11/09 08:28:21;;;;;;;;;;;;;;;;;;5077047;28;869;-79
2022/11/09 08:30:54;;;;;;;;;;;;;;;;;;5076261;28;765;-79
2022/11/09 08:33:19;;;;;;;;;;;;;;;;;;5076253;28;1144;-80
2022/11/09 08:35:44;;;;;;;;;;;;;;;;;;5057602;28;1272;-80
2022/11/09 08:38:10;;;;;;;;;;;;;;;;;;5075020;28;834;-79
2022/11/09 08:40:35;;;;;;;;;;;;;;;;;;5074978;28;1166;-79
2022/11/09 08:43:05;;;;;;;;;;;;;;;;;;5059191;28;1294;-79
2022/11/09 08:45:32;;;;;;;;;;;;;;;;;;5074784;28;1981;-80
2022/11/09 08:47:58;;;;;;;;;;;;;;;;;;5074635;28;1154;-80
2022/11/09 08:50:23;;;;;;;;;;;;;;;;;;5074489;28;1178;-79
2022/11/09 08:52:49;;;;;;;;;;;;;;;;;;5056994;28;1206;-80
2022/11/09 08:55:14;;;;;;;;;;;;;;;;;;5073497;28;891;-80
2022/11/09 08:57:39;;;;;;;;;;;;;;;;;;5073810;28;883;-80
2022/11/09 09:00:05;;;;;;;;;;;;;;;;;;5073442;28;1024;-80
2022/11/09 09:02:31;;;;;;;;;;;;;;;;;;5056507;28;1203;-79
2022/11/09 09:04:56;;;;;;;;;;;;;;;;;;5073139;28;1909;-80
2022/11/09 09:07:21;;;;;;;;;;;;;;;;;;5056548;28;1150;-79
2022/11/09 09:09:46;;;;;;;;;;;;;;;;;;5074315;28;860;-80
2022/11/09 09:12:12;;;;;;;;;;;;;;;;;;5074880;28;1272;-79
2022/11/09 09:14:37;;;;;;;;;;;;;;;;;;5072791;28;1619;-80
2022/11/09 09:17:03;;;;;;;;;;;;;;;;;;5074825;28;820;-80
2022/11/09 09:19:28;;;;;;;;;;;;;;;;;;5072933;28;1123;-80
2022/11/09 09:21:53;;;;;;;;;;;;;;;;;;5055440;28;1202;-79
2022/11/09 09:24:18;;;;;;;;;;;;;;;;;;5056273;28;1163;-79
2022/11/09 09:26:45;;;;;;;;;;;;;;;;;;5072933;28;1959;-79
2022/11/09 09:29:12;;;;;;;;;;;;;;;;;;5074215;28;854;-79
2022/11/09 09:31:38;;;;;;;;;;;;;;;;;;5072400;28;1247;-79
2022/11/09 09:34:03;;;;;;;;;;;;;;;;;;5074433;28;880;-79
2022/11/09 09:36:28;;;;;;;;;;;;;;;;;;5072992;28;1050;-79
2022/11/09 09:38:54;;;;;;;;;;;;;;;;;;5072524;28;1222;-79
2022/11/09 09:41:27;;;;;;;;;;;;;;;;;;5072722;28;1189;-79
2022/11/09 09:43:55;;;;;;;;;;;;;;;;;;5073361;28;824;-80
2022/11/09 09:46:30;;;;;;;;;;;;;;;;;;5072653;28;1973;-80
2022/11/09 09:49:02;;;;;;;;;;;;;;;;;;5072102;28;1075;-80
2022/11/09 09:51:31;;;;;;;;;;;;;;;;;;5072444;28;1178;-80
2022/11/09 09:53:59;;;;;;;;;;;;;;;;;;5072086;28;1194;-80
2022/11/09 09:56:27;;;;;;;;;;;;;;;;;;5073203;28;1070;-80
2022/11/09 09:58:57;;;;;;;;;;;;;;;;;;5072252;28;1325;-80
2022/11/09 10:01:23;;;;;;;;;;;;;;;;;;5072823;28;1158;-79
2022/11/09 10:03:49;;;;;;;;;;;;;;;;;;5072736;28;1241;-80
2022/11/09 10:06:17;;;;;;;;;;;;;;;;;;5075121;28;1951;-80
2022/11/09 10:08:45;;;;;;;;;;;;;;;;;;5074606;28;825;-80
2022/11/09 10:11:29;;;;;;;;;;;;;;;;;;5076488;28;1014;-80
2022/11/09 10:13:55;;;;;;;;;;;;;;;;;;5074679;28;1212;-80
2022/11/09 10:16:20;;;;;;;;;;;;;;;;;;5075682;28;1253;-79
2022/11/09 10:19:04;;;;;;;;;;;;;;;;;;5091692;28;994;-79
2022/11/09 10:21:52;;;;;;;;;;;;;;;;;;5089136;28;1063;-79
2022/11/09 10:24:26;;;;;;;;;;;;;;;;;;5085734;28;1014;-79
2022/11/09 10:26:53;;;;;;;;;;;;;;;;;;5079474;28;979;-79
2022/11/09 10:29:21;;;;;;;;;;;;;;;;;;5082547;28;919;-79
2022/11/09 10:31:47;;;;;;;;;;;;;;;;;;5079194;28;1240;-79
2022/11/09 10:34:21;;;;;;;;;;;;;;;;;;5075878;28;1151;-79
2022/11/09 10:37:19;;;;;;;;;;;;;;;;;;5094113;28;999;-79
2022/11/09 10:39:54;;;;;;;;;;;;;;;;;;5063605;28;1164;-79
2022/11/09 10:42:20;;;;;;;;;;;;;;;;;;5077342;28;1336;-80
2022/11/09 10:44:45;;;;;;;;;;;;;;;;;;5082814;28;1946;-79
2022/11/09 10:47:15;;;;;;;;;;;;;;;;;;5091064;28;995;-79
2022/11/09 10:49:41;;;;;;;;;;;;;;;;;;5088923;28;1116;-79
2022/11/09 10:52:28;;;;;;;;;;;;;;;;;;5073464;28;1066;-80
2022/11/09 10:55:13;;;;;;;;;;;;;;;;;;5088596;28;1191;-79
2022/11/09 10:57:49;;;;;;;;;;;;;;;;;;5089038;28;1180;-79
2022/11/09 11:00:15;;;;;;;;;;;;;;;;;;5089026;28;1118;-79
2022/11/09 11:02:42;;;;;;;;;;;;;;;;;;5089042;28;1147;-79
2022/11/09 11:05:07;;;;;;;;;;;;;;;;;;5083014;28;1964;-78
2022/11/09 11:07:33;;;;;;;;;;;;;;;;;;5071866;28;1143;-78
2022/11/09 11:10:14;;;;;;;;;;;;;;;;;;5071798;28;917;-78
2022/11/09 11:12:40;;;;;;;;;;;;;;;;;;5073360;28;999;-77
2022/11/09 11:15:18;;;;;;;;;;;;;;;;;;5071710;28;1166;-80
2022/11/09 11:17:43;;;;;;;;;;;;;;;;;;5073595;28;927;-79
2022/11/09 11:20:28;;;;;;;;;;;;;;;;;;5074037;28;829;-78
2022/11/09 11:23:04;;;;;;;;;;;;;;;;;;5089858;28;891;-79
2022/11/09 11:25:31;;;;;;;;;;;;;;;;;;5079094;28;1898;-79
2022/11/09 11:28:01;;;;;;;;;;;;;;;;;;5055524;28;1067;-79
2022/11/09 11:30:37;;;;;;;;;;;;;;;;;;5076274;28;1158;-79
2022/11/09 11:33:11;;;;;;;;;;;;;;;;;;5074440;28;1336;-78
2022/11/09 11:35:49;;;;;;;;;;;;;;;;;;5072103;28;1146;-79
2022/11/09 11:38:14;;;;;;;;;;;;;;;;;;5071325;28;1166;-80
2022/11/09 11:40:47;;;;;;;;;;;;;;;;;;5073067;28;930;-78
2022/11/09 11:43:19;;;;;;;;;;;;;;;;;;5072419;28;1213;-78
2022/11/09 11:46:12;;;;;;;;;;;;;;;;;;5071728;28;1961;-78
2022/11/09 11:48:56;;;;;;;;;;;;;;;;;;5071917;28;1486;-79
2022/11/09 11:51:28;;;;;;;;;;;;;;;;;;5072151;28;1218;-79
2022/11/09 11:53:57;;;;;;;;;;;;;;;;;;5072234;28;867;-80
2022/11/09 11:56:30;;;;;;;;;;;;;;;;;;5071896;28;1076;-80
2022/11/09 11:59:13;;;;;;;;;;;;;;;;;;5070826;28;1273;-80
2022/11/09 12:01:38;;;;;;;;;;;;;;;;;;5071150;28;1088;-80
2022/11/09 12:04:24;;;;;;;;;;;;;;;;;;5070858;28;1301;-80
2022/11/09 12:07:05;;;;;;;;;;;;;;;;;;5070637;28;1963;-79
2022/11/09 12:09:30;;;;;;;;;;;;;;;;;;5072675;28;656;-79
2022/11/09 12:11:56;;;;;;;;;;;;;;;;;;5071833;28;892;-79
2022/11/09 12:14:27;;;;;;;;;;;;;;;;;;5070560;28;1305;-79
2022/11/09 12:17:00;;;;;;;;;;;;;;;;;;5070148;28;1178;-79
2022/11/09 12:19:39;;;;;;;;;;;;;;;;;;5071718;28;881;-80
2022/11/09 12:22:10;;;;;;;;;;;;;;;;;;5071443;28;935;-80
2022/11/09 12:24:59;;;;;;;;;;;;;;;;;;5070254;28;1965;-81
2022/11/09 12:27:36;;;;;;;;;;;;;;;;;;5072053;28;821;-80
2022/11/09 12:30:04;;;;;;;;;;;;;;;;;;5076585;28;1093;-81
2022/11/09 12:32:40;;;;;;;;;;;;;;;;;;5085851;28;1226;-77
2022/11/09 12:35:19;;;;;;;;;;;;;;;;;;5091112;28;1332;-77
2022/11/09 12:38:11;;;;;;;;;;;;;;;;;;5093243;28;1280;-76
2022/11/09 12:40:38;;;;;;;;;;;;;;;;;;5086177;28;1152;-77
2022/11/09 12:43:22;;;;;;;;;;;;;;;;;;5093456;28;1260;-77
2022/11/09 12:45:50;;;;;;;;;;;;;;;;;;5094144;28;1906;-76
2022/11/09 12:48:20;;;;;;;;;;;;;;;;;;5093896;28;1158;-76
2022/11/09 12:50:45;;;;;;;;;;;;;;;;;;5095179;28;833;-77
2022/11/09 12:53:11;;;;;;;;;;;;;;;;;;5094291;28;1072;-76
2022/11/09 12:55:41;;;;;;;;;;;;;;;;;;5094253;28;1261;-76
2022/11/09 12:58:17;;;;;;;;;;;;;;;;;;5094196;28;1173;-77
2022/11/09 13:00:44;;;;;;;;;;;;;;;;;;5094083;28;1284;-77
2022/11/09 13:03:17;;;;;;;;;;;;;;;;;;5095410;28;836;-76
2022/11/09 13:05:44;;;;;;;;;;;;;;;;;;5093957;28;1897;-77
2022/11/09 13:08:22;;;;;;;;;;;;;;;;;;5093781;28;1158;-76
2022/11/09 13:11:06;;;;;;;;;;;;;;;;;;5092986;28;1197;-75
2022/11/09 13:13:31;;;;;;;;;;;;;;;;;;5092905;28;1192;-74
2022/11/09 13:16:02;;;;;;;;;;;;;;;;;;5094866;28;1072;-75
2022/11/09 13:18:30;;;;;;;;;;;;;;;;;;5092092;28;1305;-75
2022/11/09 13:21:16;;;;;;;;;;;;;;;;;;5092806;28;1158;-76
2022/11/09 13:23:41;;;;;;;;;;;;;;;;;;5093034;28;1223;-77
2022/11/09 13:26:20;;;;;;;;;;;;;;;;;;5093195;28;1905;-74
2022/11/09 13:29:05;;;;;;;;;;;;;;;;;;5093998;28;848;-77
2022/11/09 13:31:49;;;;;;;;;;;;;;;;;;5093965;28;1076;-78
2022/11/09 13:34:33;;;;;;;;;;;;;;;;;;5093031;28;1203;-78
2022/11/09 13:37:17;;;;;;;;;;;;;;;;;;5092402;28;1297;-78
2022/11/09 13:39:43;;;;;;;;;;;;;;;;;;5092497;28;1269;-78
2022/11/09 13:42:24;;;;;;;;;;;;;;;;;;5092634;28;1059;-77
2022/11/09 13:44:50;;;;;;;;;;;;;;;;;;5092167;28;1974;-78
2022/11/09 13:47:22;;;;;;;;;;;;;;;;;;5092234;28;1234;-77
2022/11/09 13:49:49;;;;;;;;;;;;;;;;;;5093850;28;817;-78
2022/11/09 13:52:34;;;;;;;;;;;;;;;;;;5093161;28;900;-77
2022/11/09 13:54:59;;;;;;;;;;;;;;;;;;5091347;28;1083;-77
2022/11/09 13:57:25;;;;;;;;;;;;;;;;;;5092426;28;1327;-77
2022/11/09 13:59:51;;;;;;;;;;;;;;;;;;5091813;28;1265;-78
2022/11/09 14:02:19;;;;;;;;;;;;;;;;;;5074900;28;1269;-78
2022/11/09 14:04:44;;;;;;;;;;;;;;;;;;5092753;28;1904;-78
2022/11/09 14:07:22;;;;;;;;;;;;;;;;;;5074808;28;1270;-78
2022/11/09 14:09:50;;;;;;;;;;;;;;;;;;5093439;28;841;-77
2022/11/09 14:12:50;;;;;;;;;;;;;;;;;;5091691;28;1219;-78
2022/11/09 14:15:20;;;;;;;;;;;;;;;;;;5070077;28;1150;-78
2022/11/09 14:18:12;;;;;;;;;;;;;;;;;;5088963;28;1130;-79
2022/11/09 14:20:37;;;;;;;;;;;;;;;;;;5077008;28;1295;-79
2022/11/09 14:23:12;;;;;;;;;;;;;;;;;;5091327;28;1428;-78
2022/11/09 14:25:37;;;;;;;;;;;;;;;;;;5091878;28;1893;-79
2022/11/09 14:28:17;;;;;;;;;;;;;;;;;;5092772;28;841;-78
2022/11/09 14:30:43;;;;;;;;;;;;;;;;;;5092242;28;1234;-78
2022/11/09 14:33:35;;;;;;;;;;;;;;;;;;5093285;28;1221;-79
2022/11/09 14:36:03;;;;;;;;;;;;;;;;;;5089531;28;1428;-79
2022/11/09 14:38:42;;;;;;;;;;;;;;;;;;5092018;28;1388;-79
2022/11/09 14:41:21;;;;;;;;;;;;;;;;;;5091742;28;1189;-78
2022/11/09 14:43:47;;;;;;;;;;;;;;;;;;5091166;28;1347;-79
2022/11/09 14:46:18;;;;;;;;;;;;;;;;;;5092283;28;1977;-79
2022/11/09 14:49:00;;;;;;;;;;;;;;;;;;5091987;28;1158;-78
2022/11/09 14:51:38;;;;;;;;;;;;;;;;;;5093679;28;895;-77
2022/11/09 14:54:11;;;;;;;;;;;;;;;;;;5092876;28;1151;-78
2022/11/09 14:56:37;;;;;;;;;;;;;;;;;;5094404;28;837;-77
2022/11/09 14:59:07;;;;;;;;;;;;;;;;;;5091160;28;1302;-77
2022/11/09 15:01:32;;;;;;;;;;;;;;;;;;5091378;28;1189;-77
2022/11/09 15:04:03;;;;;;;;;;;;;;;;;;5091212;28;1310;-77
2022/11/09 15:06:28;;;;;;;;;;;;;;;;;;5091367;28;1905;-77
2022/11/09 15:08:55;;;;;;;;;;;;;;;;;;5093019;28;781;-77
2022/11/09 15:11:29;;;;;;;;;;;;;;;;;;5091052;28;1348;-77
2022/11/09 15:13:54;;;;;;;;;;;;;;;;;;5092229;28;1036;-78
2022/11/09 15:16:21;;;;;;;;;;;;;;;;;;5073522;28;1297;-78
2022/11/09 15:18:47;;;;;;;;;;;;;;;;;;5090705;28;1230;-78
2022/11/09 15:21:17;;;;;;;;;;;;;;;;;;5090877;28;797;-78
2022/11/09 15:23:45;;;;;;;;;;;;;;;;;;5092242;28;895;-78
2022/11/09 15:26:24;;;;;;;;;;;;;;;;;;5092443;28;1922;-78
2022/11/09 15:28:50;;;;;;;;;;;;;;;;;;5090045;28;1210;-78
2022/11/09 15:31:17;;;;;;;;;;;;;;;;;;5090761;28;869;-77
2022/11/09 15:33:42;;;;;;;;;;;;;;;;;;5090877;28;1335;-77
2022/11/09 15:36:26;;;;;;;;;;;;;;;;;;5092428;28;895;-77
2022/11/09 15:39:15;;;;;;;;;;;;;;;;;;5089973;28;1292;-77
2022/11/09 15:41:40;;;;;;;;;;;;;;;;;;5088589;28;1029;-76
2022/11/09 15:44:06;;;;;;;;;;;;;;;;;;5089578;28;887;-77
2022/11/09 15:46:33;;;;;;;;;;;;;;;;;;5090047;28;1902;-77
2022/11/09 15:49:05;;;;;;;;;;;;;;;;;;5090155;28;1256;-77
2022/11/09 15:51:30;;;;;;;;;;;;;;;;;;5090351;28;1174;-76
2022/11/09 15:53:55;;;;;;;;;;;;;;;;;;5091036;28;951;-76
2022/11/09 15:56:22;;;;;;;;;;;;;;;;;;5068348;28;1258;-77
2022/11/09 15:58:48;;;;;;;;;;;;;;;;;;5083526;28;1148;-77
2022/11/09 16:01:13;;;;;;;;;;;;;;;;;;5079296;28;1124;-77
2022/11/09 16:03:38;;;;;;;;;;;;;;;;;;5072878;28;829;-78
2022/11/09 16:06:04;;;;;;;;;;;;;;;;;;5077286;28;1902;-78
2022/11/09 16:08:29;;;;;;;;;;;;;;;;;;5079467;28;1296;-76
2022/11/09 16:10:54;;;;;;;;;;;;;;;;;;5094381;28;1277;-76
2022/11/09 16:13:20;;;;;;;;;;;;;;;;;;5095391;28;1026;-77
2022/11/09 16:15:45;;;;;;;;;;;;;;;;;;5077978;28;1174;-77
2022/11/09 16:18:10;;;;;;;;;;;;;;;;;;5095742;28;1089;-78
2022/11/09 16:20:36;;;;;;;;;;;;;;;;;;5095819;28;868;-76
2022/11/09 16:23:01;;;;;;;;;;;;;;;;;;5094649;28;1296;-77
2022/11/09 16:25:26;;;;;;;;;;;;;;;;;;5094335;28;1961;-76
2022/11/09 16:27:52;;;;;;;;;;;;;;;;;;5094595;28;1158;-78
2022/11/09 16:30:18;;;;;;;;;;;;;;;;;;5095001;28;853;-78
2022/11/09 16:32:43;;;;;;;;;;;;;;;;;;5092684;28;1267;-78
2022/11/09 16:35:08;;;;;;;;;;;;;;;;;;5083156;28;1219;-78
2022/11/09 16:37:36;;;;;;;;;;;;;;;;;;5093894;28;1143;-77
2022/11/09 16:40:05;;;;;;;;;;;;;;;;;;5094600;28;1050;-78
2022/11/09 16:42:32;;;;;;;;;;;;;;;;;;5095514;28;1062;-77
2022/11/09 16:44:59;;;;;;;;;;;;;;;;;;5093965;28;1902;-77
2022/11/09 16:47:24;;;;;;;;;;;;;;;;;;5094161;28;1205;-77
2022/11/09 16:49:49;;;;;;;;;;;;;;;;;;5094683;28;1254;-78
2022/11/09 16:52:15;;;;;;;;;;;;;;;;;;5096462;28;877;-78
2022/11/09 16:54:40;;;;;;;;;;;;;;;;;;5094862;28;829;-77
2022/11/09 16:57:05;;;;;;;;;;;;;;;;;;5096102;28;1101;-78
2022/11/09 16:59:31;;;;;;;;;;;;;;;;;;5094200;28;1320;-78
2022/11/09 17:01:57;;;;;;;;;;;;;;;;;;5095897;28;895;-78
2022/11/09 17:04:22;;;;;;;;;;;;;;;;;;5094448;28;1071;-78
2022/11/09 17:06:48;;;;;;;;;;;;;;;;;;5094358;28;1906;-78
2022/11/09 17:09:17;;;;;;;;;;;;;;;;;;5095250;28;959;-76
2022/11/09 17:11:43;;;;;;;;;;;;;;;;;;5094622;28;1169;-78
2022/11/09 17:14:09;;;;;;;;;;;;;;;;;;5094380;28;1519;-78
2022/11/09 17:16:34;;;;;;;;;;;;;;;;;;5095298;28;951;-77
2022/11/09 17:18:59;;;;;;;;;;;;;;;;;;5094144;28;999;-76